Time;durP1;ratioP1;P1;durP2;ratioP2;P2;SDS_P1;SDS_P2;PMS_P1;PMS_P2;Temp;Humidity;BMP_temperature;BMP_pressure;BME280_temperature;BME280_humidity;BME280_pressure;Samples;Min_cycle;Max_cycle;Signal;HPM_P1;HPM_P2
2021/10/02 00:31:33;;;;;;;3.37;2.43;;;13.80;99.90;;;;;;5106343;28;20194;-73
2021/10/02 00:37:23;;;;;;;3.93;2.13;;;13.80;99.90;;;;;;5098152;28;20205;-73
2021/10/02 00:45:20;;;;;;;2.53;2.33;;;13.80;99.90;;;;;;5121573;27;20230;-73
2021/10/02 00:47:47;;;;;;;3.13;2.83;;;13.80;99.90;;;;;;5129874;27;20205;-74
2021/10/02 00:50:15;;;;;;;3.20;2.40;;;13.70;99.90;;;;;;5109413;27;20237;-74
2021/10/02 00:52:43;;;;;;;3.63;2.40;;;13.70;99.90;;;;;;5109583;28;20577;-74
2021/10/02 00:55:10;;;;;;;3.30;2.63;;;13.70;99.90;;;;;;5108702;28;20226;-74
2021/10/02 00:57:37;;;;;;;5.80;3.20;;;13.70;99.90;;;;;;5094443;28;20243;-74
2021/10/02 01:00:05;;;;;;;4.60;2.63;;;13.70;99.90;;;;;;5108928;28;20238;-74
2021/10/02 01:02:42;;;;;;;2.87;2.57;;;13.70;99.90;;;;;;5109184;28;20663;-74
2021/10/02 01:05:40;;;;;;;5.43;2.97;;;13.70;99.90;;;;;;5109120;28;20194;-74
2021/10/02 01:08:18;;;;;;;3.23;2.90;;;13.70;99.90;;;;;;5109089;28;20206;-74
2021/10/02 01:10:50;;;;;;;3.47;2.63;;;13.60;99.90;;;;;;5109161;28;20193;-74
2021/10/02 01:13:21;;;;;;;4.87;2.50;;;13.60;99.90;;;;;;5108889;28;20202;-73
2021/10/02 01:15:51;;;;;;;3.00;2.77;;;13.60;99.90;;;;;;5108732;28;20234;-73
2021/10/02 01:18:23;;;;;;;3.20;2.50;;;13.60;99.90;;;;;;5107723;28;20225;-73
2021/10/02 01:21:03;;;;;;;3.77;2.57;;;13.60;99.90;;;;;;5108311;28;20194;-73
2021/10/02 01:24:00;;;;;;;2.77;2.57;;;13.50;99.90;;;;;;5109064;28;20217;-73
2021/10/02 01:27:01;;;;;;;2.43;2.23;;;13.50;99.90;;;;;;5062475;27;20201;-73
2021/10/02 01:29:30;;;;;;;6.70;2.50;;;13.50;99.90;;;;;;5108856;28;20206;-73
2021/10/02 01:32:04;;;;;;;2.40;2.20;;;13.50;99.90;;;;;;5108801;28;20206;-73
2021/10/02 01:34:38;;;;;;;3.93;2.50;;;13.50;99.90;;;;;;5108422;27;21018;-73
2021/10/02 01:37:17;;;;;;;3.60;2.60;;;13.50;99.90;;;;;;5108333;28;20966;-73
2021/10/02 01:48:03;;;;;;;3.17;2.30;;;13.50;99.90;;;;;;5108303;28;20197;-73
2021/10/02 01:50:31;;;;;;;3.13;2.43;;;13.50;99.90;;;;;;5108617;28;20202;-73
2021/10/02 01:53:01;;;;;;;5.10;2.53;;;13.50;99.90;;;;;;5108286;28;20674;-73
2021/10/02 01:55:29;;;;;;;3.43;2.73;;;13.40;99.90;;;;;;5108618;28;20249;-73
2021/10/02 01:58:00;;;;;;;4.60;2.37;;;13.40;99.90;;;;;;5108568;28;20214;-73
2021/10/02 02:00:30;;;;;;;3.70;2.33;;;13.40;99.90;;;;;;5108156;28;20699;-73
2021/10/02 02:03:01;;;;;;;2.43;2.27;;;13.40;99.90;;;;;;5108486;28;20294;-73
2021/10/02 02:05:30;;;;;;;5.23;2.37;;;13.40;99.90;;;;;;5108653;28;20220;-72
2021/10/02 02:08:00;;;;;;;2.70;2.50;;;13.40;99.90;;;;;;5108217;28;20682;-72
2021/10/02 02:10:28;;;;;;;2.80;2.60;;;13.40;99.90;;;;;;5108540;28;20205;-73
2021/10/02 02:12:58;;;;;;;2.57;2.37;;;13.40;99.90;;;;;;5108501;28;20217;-72
2021/10/02 02:15:30;;;;;;;3.40;2.30;;;13.40;99.90;;;;;;5108235;28;20225;-73
2021/10/02 02:18:00;;;;;;;5.23;2.50;;;13.40;99.90;;;;;;5108423;28;20266;-72
2021/10/02 02:20:31;;;;;;;2.53;2.33;;;13.40;99.90;;;;;;5108550;28;20605;-73
2021/10/02 02:22:58;;;;;;;2.50;2.30;;;13.30;99.90;;;;;;5108604;28;20195;-72
2021/10/02 02:25:24;;;;;;;2.93;2.43;;;13.30;99.90;;;;;;5108144;28;20267;-72
2021/10/02 02:27:51;;;;;;;2.77;2.57;;;13.30;99.90;;;;;;5108389;28;20255;-73
2021/10/02 02:30:18;;;;;;;4.80;2.87;;;13.30;99.90;;;;;;5107985;28;20230;-72
2021/10/02 02:32:47;;;;;;;2.80;2.60;;;13.30;99.90;;;;;;5103625;28;20210;-73
2021/10/02 02:35:14;;;;;;;2.50;2.37;;;13.30;99.90;;;;;;5087674;28;20226;-72
2021/10/02 02:37:41;;;;;;;2.83;2.60;;;13.30;99.90;;;;;;5087890;28;20260;-73
2021/10/02 02:40:08;;;;;;;2.50;2.30;;;13.30;99.90;;;;;;5087565;28;20268;-72
2021/10/02 02:42:35;;;;;;;4.03;2.90;;;13.30;99.90;;;;;;5087823;28;20738;-73
2021/10/02 02:45:02;;;;;;;4.03;2.60;;;13.30;99.90;;;;;;5087820;28;20211;-73
2021/10/02 02:47:32;;;;;;;3.73;2.30;;;13.30;99.90;;;;;;5090600;28;20568;-73
2021/10/02 02:50:05;;;;;;;3.60;2.43;;;13.30;99.90;;;;;;5092135;28;20210;-73
2021/10/02 02:52:41;;;;;;;2.70;2.50;;;13.30;99.90;;;;;;5091633;28;20299;-73
2021/10/02 02:55:11;;;;;;;2.73;2.17;;;13.30;99.90;;;;;;5091375;28;20256;-73
2021/10/02 02:57:41;;;;;;;2.23;2.13;;;13.30;99.90;;;;;;5091828;28;20207;-73
2021/10/02 03:00:11;;;;;;;4.10;2.70;;;13.30;99.90;;;;;;5091075;28;20269;-73
2021/10/02 03:02:42;;;;;;;3.20;2.83;;;13.30;99.90;;;;;;5091570;28;20661;-73
2021/10/02 03:05:13;;;;;;;2.67;2.30;;;13.30;99.90;;;;;;5091452;28;20202;-73
2021/10/02 03:07:49;;;;;;;4.43;2.53;;;13.30;99.90;;;;;;5091532;28;20262;-73
2021/10/02 03:10:16;;;;;;;3.37;2.83;;;13.20;99.90;;;;;;5091285;28;20272;-73
2021/10/02 03:12:45;;;;;;;3.07;2.87;;;13.30;99.90;;;;;;5091690;28;20214;-73
2021/10/02 03:15:15;;;;;;;2.37;2.27;;;13.30;99.90;;;;;;5090678;28;20258;-73
2021/10/02 03:17:44;;;;;;;3.90;2.80;;;13.20;99.90;;;;;;5091118;28;20248;-73
2021/10/02 03:20:14;;;;;;;2.40;2.20;;;13.20;99.90;;;;;;5090676;28;20303;-72
2021/10/02 03:22:42;;;;;;;4.47;2.90;;;13.20;99.90;;;;;;5091144;28;20199;-73
2021/10/02 03:25:10;;;;;;;4.47;2.57;;;13.20;99.90;;;;;;5091121;28;20260;-74
2021/10/02 03:27:37;;;;;;;3.10;2.43;;;13.20;99.90;;;;;;5091279;28;20246;-74
2021/10/02 03:30:06;;;;;;;4.27;2.43;;;13.20;99.90;;;;;;5090809;28;20714;-71
2021/10/02 03:32:32;;;;;;;2.83;2.30;;;13.20;99.90;;;;;;5094976;28;20194;-71
2021/10/02 03:34:59;;;;;;;3.00;2.70;;;13.20;99.90;;;;;;5094986;28;20616;-73
2021/10/02 03:37:28;;;;;;;2.90;2.37;;;13.20;99.90;;;;;;5090624;28;20211;-73
2021/10/02 03:39:56;;;;;;;2.70;2.50;;;13.20;99.90;;;;;;5090605;28;20296;-73
2021/10/02 03:42:24;;;;;;;3.00;2.80;;;13.20;99.90;;;;;;5090450;28;20261;-73
2021/10/02 03:44:53;;;;;;;2.83;2.47;;;13.20;99.90;;;;;;5090753;28;20640;-73
2021/10/02 03:47:21;;;;;;;2.60;2.40;;;13.20;99.90;;;;;;5091017;28;20199;-73
2021/10/02 03:49:49;;;;;;;3.30;2.43;;;13.20;99.90;;;;;;5090895;28;20267;-73
2021/10/02 03:52:16;;;;;;;2.67;2.43;;;13.20;99.90;;;;;;5090736;28;20207;-73
2021/10/02 03:54:44;;;;;;;2.83;2.73;;;13.20;99.90;;;;;;5090759;28;20460;-73
2021/10/02 03:57:10;;;;;;;2.93;2.73;;;13.20;99.90;;;;;;5090174;28;20257;-73
2021/10/02 03:59:37;;;;;;;3.20;2.70;;;13.20;99.90;;;;;;5089577;28;20266;-73
2021/10/02 04:02:04;;;;;;;2.97;2.73;;;13.20;99.90;;;;;;5090676;28;20253;-73
2021/10/02 04:04:30;;;;;;;3.00;2.70;;;13.20;99.90;;;;;;5090282;28;20291;-73
2021/10/02 04:06:57;;;;;;;5.20;2.63;;;13.10;99.90;;;;;;5090294;28;20206;-73
2021/10/02 04:09:24;;;;;;;2.77;2.57;;;13.20;99.90;;;;;;5090317;28;20206;-73
2021/10/02 04:11:52;;;;;;;2.50;2.30;;;13.20;99.90;;;;;;5090107;28;20206;-72
2021/10/02 04:14:19;;;;;;;4.83;2.60;;;13.20;99.90;;;;;;5089732;28;20207;-73
2021/10/02 04:16:46;;;;;;;2.40;2.20;;;13.20;99.90;;;;;;5090069;28;20296;-72
2021/10/02 04:19:13;;;;;;;2.50;2.37;;;13.30;99.90;;;;;;5089741;28;20274;-72
2021/10/02 04:21:39;;;;;;;2.90;2.70;;;13.20;99.90;;;;;;5089958;28;20217;-72
2021/10/02 04:24:06;;;;;;;3.03;2.73;;;13.20;99.90;;;;;;5090002;28;20250;-72
2021/10/02 04:26:33;;;;;;;2.60;2.40;;;13.20;99.90;;;;;;5089619;28;20206;-72
2021/10/02 04:29:01;;;;;;;4.07;2.60;;;13.20;99.90;;;;;;5089934;28;20203;-72
2021/10/02 04:31:28;;;;;;;2.60;2.40;;;13.20;99.90;;;;;;5089442;28;20672;-72
2021/10/02 04:33:55;;;;;;;3.00;2.80;;;13.30;99.90;;;;;;5089434;28;20271;-72
2021/10/02 04:36:21;;;;;;;2.90;2.70;;;13.30;99.90;;;;;;5088981;28;20752;-72
2021/10/02 04:38:48;;;;;;;3.07;2.80;;;13.30;99.90;;;;;;5089427;28;20231;-72
2021/10/02 04:41:15;;;;;;;6.30;2.50;;;13.30;99.90;;;;;;5089170;28;20268;-73
2021/10/02 04:43:42;;;;;;;4.57;2.63;;;13.30;99.90;;;;;;5089794;28;20263;-73
2021/10/02 04:46:11;;;;;;;3.90;2.60;;;13.20;99.90;;;;;;5089253;28;20260;-73
2021/10/02 04:48:38;;;;;;;5.27;2.57;;;13.30;99.90;;;;;;5089456;28;20207;-73
2021/10/02 04:51:04;;;;;;;3.47;2.70;;;13.20;99.90;;;;;;5089890;28;20217;-73
2021/10/02 04:53:31;;;;;;;3.60;2.57;;;13.20;99.90;;;;;;5089347;28;20207;-72
2021/10/02 04:56:00;;;;;;;4.03;2.33;;;13.20;99.90;;;;;;5089166;28;20262;-72
2021/10/02 04:58:27;;;;;;;5.07;2.53;;;13.20;99.90;;;;;;5088713;28;20213;-72
2021/10/02 05:00:54;;;;;;;3.37;2.60;;;13.20;99.90;;;;;;5089301;28;20191;-72
2021/10/02 05:03:22;;;;;;;3.20;2.43;;;13.20;99.90;;;;;;5088936;28;20233;-72
2021/10/02 05:05:48;;;;;;;3.23;3.03;;;13.20;99.90;;;;;;5088598;28;20242;-73
2021/10/02 05:08:15;;;;;;;2.27;2.17;;;13.20;99.90;;;;;;5088455;28;20575;-73
2021/10/02 05:10:43;;;;;;;4.40;2.60;;;13.20;99.90;;;;;;5088632;28;20199;-73
2021/10/02 05:13:10;;;;;;;2.77;2.57;;;13.20;99.90;;;;;;5088475;28;20750;-72
2021/10/02 05:15:36;;;;;;;2.80;2.60;;;13.20;99.90;;;;;;5088899;28;20276;-72
2021/10/02 05:18:03;;;;;;;2.50;2.30;;;13.20;99.90;;;;;;5088912;28;20231;-72
2021/10/02 05:20:31;;;;;;;2.77;2.57;;;13.20;99.90;;;;;;5088906;28;20236;-72
2021/10/02 05:22:59;;;;;;;2.63;2.43;;;13.20;99.90;;;;;;5089158;28;20226;-72
2021/10/02 05:25:26;;;;;;;3.20;2.60;;;13.20;99.90;;;;;;5088780;28;20251;-72
2021/10/02 05:27:52;;;;;;;4.03;2.80;;;13.20;99.90;;;;;;5088637;28;20606;-72
2021/10/02 05:30:19;;;;;;;2.80;2.60;;;13.20;99.90;;;;;;5088737;28;20206;-71
2021/10/02 05:32:46;;;;;;;2.97;2.63;;;13.20;99.90;;;;;;5088997;28;20207;-72
2021/10/02 05:35:12;;;;;;;5.00;2.90;;;13.20;99.90;;;;;;5088884;28;20207;-72
2021/10/02 05:37:40;;;;;;;3.50;2.57;;;13.20;99.90;;;;;;5088781;28;20663;-73
2021/10/02 05:40:08;;;;;;;3.07;2.77;;;13.20;99.90;;;;;;5088198;28;20635;-73
2021/10/02 05:42:35;;;;;;;5.33;2.70;;;13.20;99.90;;;;;;5088387;28;20275;-73
2021/10/02 05:45:02;;;;;;;2.63;2.40;;;13.20;99.90;;;;;;5088462;28;20210;-73
2021/10/02 05:47:28;;;;;;;3.33;3.03;;;13.20;99.90;;;;;;5088481;28;20463;-73
2021/10/02 05:49:55;;;;;;;4.40;3.10;;;13.20;99.90;;;;;;5088664;28;20202;-73
2021/10/02 05:52:22;;;;;;;2.80;2.60;;;13.00;99.90;;;;;;5088107;28;20748;-73
2021/10/02 05:54:50;;;;;;;3.83;2.67;;;13.00;99.90;;;;;;5088727;28;20283;-73
2021/10/02 05:57:16;;;;;;;2.67;2.47;;;13.10;99.90;;;;;;5088245;28;20223;-74
2021/10/02 05:59:43;;;;;;;2.80;2.57;;;13.10;99.90;;;;;;5088344;28;20323;-74
2021/10/02 06:02:10;;;;;;;2.70;2.50;;;13.10;99.90;;;;;;5088452;28;20853;-73
2021/10/02 06:04:36;;;;;;;3.50;2.70;;;13.10;99.90;;;;;;5087892;28;21006;-73
2021/10/02 06:07:03;;;;;;;4.33;2.70;;;13.20;99.90;;;;;;5088624;28;20210;-73
2021/10/02 06:09:30;;;;;;;3.60;2.80;;;13.20;99.90;;;;;;5088475;28;20245;-73
2021/10/02 06:11:58;;;;;;;3.03;2.83;;;13.20;99.90;;;;;;5088572;28;20203;-73
2021/10/02 06:14:25;;;;;;;2.93;2.73;;;13.30;99.90;;;;;;5088041;28;20207;-73
2021/10/02 06:16:51;;;;;;;2.70;2.50;;;13.30;99.90;;;;;;5088044;28;20321;-73
2021/10/02 06:19:18;;;;;;;3.30;2.53;;;13.30;99.90;;;;;;5088006;28;20271;-73
2021/10/02 06:21:46;;;;;;;2.63;2.47;;;13.30;99.90;;;;;;5089869;28;20293;-73
2021/10/02 06:24:13;;;;;;;3.87;2.70;;;13.30;99.90;;;;;;5092067;28;20623;-72
2021/10/02 06:26:40;;;;;;;2.27;2.17;;;13.30;99.90;;;;;;5091963;28;20218;-72
2021/10/02 06:29:10;;;;;;;2.80;2.60;;;13.30;99.90;;;;;;5091818;28;20211;-72
2021/10/02 06:31:37;;;;;;;4.37;2.80;;;13.20;99.90;;;;;;5091546;28;20206;-73
2021/10/02 06:34:04;;;;;;;4.50;2.50;;;13.20;99.90;;;;;;5091841;28;20215;-73
2021/10/02 06:36:30;;;;;;;5.17;2.70;;;13.20;99.90;;;;;;5091604;28;20284;-73
2021/10/02 06:38:59;;;;;;;3.07;2.70;;;13.30;99.90;;;;;;5091661;28;20299;-73
2021/10/02 06:41:26;;;;;;;2.70;2.50;;;13.30;99.90;;;;;;5091291;28;21081;-73
2021/10/02 06:43:53;;;;;;;2.87;2.67;;;13.30;99.90;;;;;;5091923;28;20746;-73
2021/10/02 06:46:20;;;;;;;3.10;2.50;;;13.30;99.90;;;;;;5091651;28;20268;-73
2021/10/02 06:48:47;;;;;;;4.60;2.50;;;13.40;99.90;;;;;;5091784;28;20202;-73
2021/10/02 06:51:14;;;;;;;4.70;2.60;;;13.40;99.90;;;;;;5091867;28;20264;-73
2021/10/02 06:53:41;;;;;;;3.57;2.90;;;13.40;99.90;;;;;;5091743;28;20214;-73
2021/10/02 06:56:07;;;;;;;3.00;2.80;;;13.50;99.90;;;;;;5091684;28;20275;-72
2021/10/02 06:58:34;;;;;;;2.80;2.60;;;13.50;99.90;;;;;;5091252;28;20234;-73
2021/10/02 07:01:00;;;;;;;3.53;2.73;;;13.60;99.90;;;;;;5091765;28;20191;-73
2021/10/02 07:03:28;;;;;;;3.43;2.43;;;13.60;99.90;;;;;;5091466;28;20279;-73
2021/10/02 07:05:55;;;;;;;2.90;2.70;;;13.60;99.90;;;;;;5091504;28;20234;-72
2021/10/02 07:08:22;;;;;;;3.13;2.77;;;13.70;99.90;;;;;;5091438;28;20199;-73
2021/10/02 07:10:48;;;;;;;2.93;2.73;;;13.70;99.90;;;;;;5091320;28;20206;-73
2021/10/02 07:13:15;;;;;;;3.00;2.80;;;13.70;99.90;;;;;;5091185;28;20199;-73
2021/10/02 07:15:42;;;;;;;2.93;2.70;;;13.80;99.90;;;;;;5090877;28;20226;-73
2021/10/02 07:18:09;;;;;;;4.43;2.93;;;13.80;99.90;;;;;;5090897;28;20231;-73
2021/10/02 07:20:37;;;;;;;3.10;2.50;;;13.80;99.90;;;;;;5091032;28;20203;-73
2021/10/02 07:23:03;;;;;;;2.93;2.70;;;13.80;99.90;;;;;;5091259;28;20239;-74
2021/10/02 07:25:30;;;;;;;4.03;2.90;;;13.80;99.90;;;;;;5091009;28;20234;-74
2021/10/02 07:27:57;;;;;;;4.13;2.90;;;13.80;99.90;;;;;;5090878;28;20211;-72
2021/10/02 07:30:24;;;;;;;2.90;2.70;;;13.80;99.90;;;;;;5091004;28;20218;-72
2021/10/02 07:32:50;;;;;;;3.40;2.70;;;13.80;99.90;;;;;;5090891;28;20238;-72
2021/10/02 07:35:17;;;;;;;3.10;2.80;;;13.90;99.90;;;;;;5090970;28;20643;-73
2021/10/02 07:37:45;;;;;;;3.90;2.60;;;13.90;99.90;;;;;;5090416;28;20227;-73
2021/10/02 07:40:14;;;;;;;2.90;2.70;;;13.90;99.90;;;;;;5090615;28;20271;-73
2021/10/02 07:42:45;;;;;;;3.00;2.80;;;14.00;99.90;;;;;;5090136;28;20697;-72
2021/10/02 07:45:12;;;;;;;4.77;2.60;;;14.00;99.90;;;;;;5090363;28;20280;-73
2021/10/02 07:47:40;;;;;;;3.40;2.90;;;14.00;99.90;;;;;;5090330;28;20234;-72
2021/10/02 07:50:09;;;;;;;2.70;2.50;;;14.00;99.90;;;;;;5090463;28;20211;-74
2021/10/02 07:52:35;;;;;;;8.30;2.80;;;14.00;99.90;;;;;;5090530;28;20206;-74
2021/10/02 07:55:04;;;;;;;2.43;2.33;;;14.00;99.90;;;;;;5090722;28;20664;-74
2021/10/02 07:57:31;;;;;;;3.07;2.70;;;14.00;99.90;;;;;;5090275;28;20235;-74
2021/10/02 07:59:59;;;;;;;2.80;2.60;;;14.10;99.90;;;;;;5090110;28;20782;-74
2021/10/02 08:02:25;;;;;;;2.63;2.43;;;14.10;99.90;;;;;;5090432;28;20202;-73
2021/10/02 08:04:53;;;;;;;4.90;2.60;;;14.10;99.90;;;;;;5090293;28;20620;-74
2021/10/02 08:07:21;;;;;;;3.00;2.80;;;14.10;99.90;;;;;;5090059;28;20249;-74
2021/10/02 08:09:49;;;;;;;3.43;2.77;;;14.10;99.90;;;;;;5089964;28;20206;-74
2021/10/02 08:12:17;;;;;;;3.80;2.90;;;14.10;99.90;;;;;;5089862;28;20252;-72
2021/10/02 08:14:43;;;;;;;3.90;2.70;;;14.10;99.90;;;;;;5089633;28;20203;-72
2021/10/02 08:17:11;;;;;;;2.77;2.60;;;14.10;99.90;;;;;;5089735;28;20305;-72
2021/10/02 08:19:41;;;;;;;4.70;3.20;;;14.10;99.90;;;;;;5089887;28;20210;-72
2021/10/02 08:22:10;;;;;;;4.30;2.80;;;14.10;99.90;;;;;;5090022;28;20203;-72
2021/10/02 08:24:39;;;;;;;2.97;2.70;;;14.20;99.90;;;;;;5089598;28;20256;-72
2021/10/02 08:27:07;;;;;;;3.03;2.83;;;14.30;99.90;;;;;;5089451;28;20215;-73
2021/10/02 08:29:35;;;;;;;2.80;2.60;;;14.30;99.90;;;;;;5089586;28;20284;-73
2021/10/02 08:32:02;;;;;;;2.80;2.57;;;14.40;99.90;;;;;;5089614;28;20203;-73
2021/10/02 08:34:29;;;;;;;2.43;2.23;;;14.50;99.90;;;;;;5089090;28;20207;-73
2021/10/02 08:36:56;;;;;;;3.80;2.40;;;14.60;99.90;;;;;;5089400;28;20230;-73
2021/10/02 08:39:22;;;;;;;2.87;2.67;;;14.70;99.90;;;;;;5089264;28;20287;-72
2021/10/02 08:41:50;;;;;;;2.90;2.60;;;14.80;99.90;;;;;;5089172;28;20261;-72
2021/10/02 08:44:18;;;;;;;2.90;2.70;;;14.90;99.90;;;;;;5089127;28;20562;-72
2021/10/02 08:46:47;;;;;;;2.97;2.60;;;15.00;99.90;;;;;;5089221;28;20301;-74
2021/10/02 08:49:36;;;;;;;4.30;3.90;;;15.10;99.90;;;;;;5096712;27;20202;-73
2021/10/02 08:52:05;;;;;;;3.10;2.73;;;15.20;99.90;;;;;;5116368;27;20230;-73
2021/10/02 08:54:36;;;;;;;3.47;2.70;;;15.20;99.90;;;;;;5126568;27;20205;-73
2021/10/02 08:57:03;;;;;;;2.70;2.50;;;15.30;99.90;;;;;;5129709;27;20247;-74
2021/10/02 08:59:30;;;;;;;2.93;2.73;;;15.40;99.90;;;;;;5129344;27;20237;-74
2021/10/02 09:01:58;;;;;;;2.53;2.43;;;15.50;99.90;;;;;;5129562;27;20592;-72
2021/10/02 09:04:25;;;;;;;3.67;2.53;;;15.50;99.90;;;;;;5129582;27;20274;-72
2021/10/02 09:06:51;;;;;;;2.73;2.63;;;15.60;99.90;;;;;;5129357;27;20720;-71
2021/10/02 09:09:18;;;;;;;4.93;2.67;;;15.70;99.90;;;;;;5129756;27;20212;-73
2021/10/02 09:11:45;;;;;;;3.67;2.70;;;15.70;99.90;;;;;;5129539;27;20201;-73
2021/10/02 09:14:11;;;;;;;2.47;2.27;;;15.80;99.90;;;;;;5129439;27;20274;-73
2021/10/02 09:16:40;;;;;;;2.83;2.40;;;15.80;99.90;;;;;;5129061;27;20221;-73
2021/10/02 09:19:09;;;;;;;3.17;2.17;;;15.90;99.90;;;;;;5129621;27;20224;-73
2021/10/02 09:21:43;;;;;;;2.40;2.20;;;16.00;99.90;;;;;;5129471;27;20270;-73
2021/10/02 09:24:22;;;;;;;2.43;2.07;;;16.00;99.90;;;;;;5129575;27;20218;-73
2021/10/02 09:26:50;;;;;;;2.60;2.40;;;16.10;99.90;;;;;;5129402;27;20193;-73
2021/10/02 09:29:17;;;;;;;3.13;2.23;;;16.20;99.90;;;;;;5106944;27;20259;-72
2021/10/02 09:31:44;;;;;;;4.03;2.40;;;16.20;99.90;;;;;;5105094;28;20380;-73
2021/10/02 09:34:24;;;;;;;2.97;2.17;;;16.40;99.90;;;;;;5105095;28;20218;-72
2021/10/02 09:36:51;;;;;;;2.10;1.90;;;16.40;99.90;;;;;;5105123;28;20198;-73
2021/10/02 09:39:17;;;;;;;2.13;1.90;;;16.60;99.90;;;;;;5104489;28;20648;-73
2021/10/02 09:41:48;;;;;;;2.10;2.00;;;16.70;99.90;;;;;;5104698;28;20625;-73
2021/10/02 09:44:22;;;;;;;3.23;2.20;;;16.80;99.90;;;;;;5105326;28;20244;-76
2021/10/02 09:46:49;;;;;;;2.83;1.80;;;16.90;99.90;;;;;;5105878;28;20221;-77
2021/10/02 09:49:19;;;;;;;1.97;1.87;;;16.90;99.90;;;;;;5105388;28;20253;-77
2021/10/02 09:51:47;;;;;;;3.00;2.13;;;16.90;99.90;;;;;;5104788;28;20714;-73
2021/10/02 09:54:36;;;;;;;2.53;1.90;;;16.90;99.90;;;;;;5104776;28;20225;-73
2021/10/02 09:57:11;;;;;;;2.07;1.87;;;16.90;99.90;;;;;;5107357;28;20301;-73
2021/10/02 09:59:38;;;;;;;1.90;1.80;;;17.00;99.90;;;;;;5108762;28;20657;-74
2021/10/02 10:02:16;;;;;;;3.63;1.90;;;17.10;99.90;;;;;;5109350;28;20216;-73
2021/10/02 10:04:51;;;;;;;2.60;2.00;;;17.00;99.90;;;;;;5108709;28;20476;-74
2021/10/02 10:07:19;;;;;;;2.70;1.60;;;17.00;99.90;;;;;;5104283;28;20210;-74
2021/10/02 10:10:00;;;;;;;1.60;1.50;;;17.10;99.90;;;;;;5088571;28;20214;-73
2021/10/02 10:12:29;;;;;;;3.13;1.93;;;17.30;99.90;;;;;;5088529;28;20282;-74
2021/10/02 10:14:56;;;;;;;2.43;1.70;;;17.40;99.90;;;;;;5088641;28;20207;-74
2021/10/02 10:17:23;;;;;;;4.13;1.87;;;17.60;99.90;;;;;;5088028;28;20250;-73
2021/10/02 10:20:04;;;;;;;2.00;1.90;;;17.60;99.90;;;;;;5088215;28;20238;-73
2021/10/02 10:22:32;;;;;;;2.57;1.70;;;17.70;99.90;;;;;;5096213;28;20652;-74
2021/10/02 10:25:01;;;;;;;2.83;1.90;;;17.80;99.90;;;;;;5111505;27;20202;-74
2021/10/02 10:27:33;;;;;;;2.00;1.70;;;17.90;99.90;;;;;;5110148;27;20680;-74
2021/10/02 10:30:13;;;;;;;2.97;1.80;;;18.00;99.90;;;;;;5104313;27;20248;-74
2021/10/02 10:32:55;;;;;;;3.63;1.67;;;18.10;99.90;;;;;;5091159;28;20260;-74
2021/10/02 10:35:22;;;;;;;2.60;1.60;;;18.20;99.90;;;;;;5091497;28;20191;-75
2021/10/02 10:37:50;;;;;;;2.47;1.77;;;18.20;99.90;;;;;;5103716;28;20269;-74
2021/10/02 10:40:17;;;;;;;2.10;1.90;;;18.20;99.90;;;;;;5111737;28;20222;-74
2021/10/02 10:42:43;;;;;;;3.40;1.60;;;18.20;99.90;;;;;;5111627;28;20247;-75
2021/10/02 10:45:10;;;;;;;3.30;1.53;;;18.30;99.90;;;;;;5110570;27;20260;-76
2021/10/02 10:47:37;;;;;;;1.70;1.60;;;18.30;99.90;;;;;;5109701;27;20251;-74
2021/10/02 10:50:05;;;;;;;1.80;1.70;;;18.50;99.90;;;;;;5096868;28;20213;-74
2021/10/02 10:52:36;;;;;;;1.90;1.80;;;18.60;99.90;;;;;;5090508;28;20708;-74
2021/10/02 10:55:12;;;;;;;1.70;1.60;;;18.80;99.90;;;;;;5106271;27;20237;-74
2021/10/02 10:57:42;;;;;;;1.77;1.67;;;18.80;99.90;;;;;;5110173;28;20587;-74
2021/10/02 11:00:12;;;;;;;2.27;1.70;;;18.90;99.90;;;;;;5110069;28;20234;-74
2021/10/02 11:02:44;;;;;;;1.93;1.73;;;19.10;99.90;;;;;;5111536;28;20222;-74
2021/10/02 11:05:48;;;;;;;3.47;1.77;;;19.10;99.90;;;;;;5111929;28;20587;-73
2021/10/02 11:08:19;;;;;;;1.80;1.70;;;19.20;99.90;;;;;;5110746;28;20202;-74
2021/10/02 11:10:53;;;;;;;3.53;1.70;;;19.30;99.90;;;;;;5111223;28;20206;-74
2021/10/02 11:13:21;;;;;;;1.83;1.73;;;19.40;99.90;;;;;;5111338;28;20194;-74
2021/10/02 11:15:49;;;;;;;1.77;1.67;;;19.50;99.90;;;;;;5111180;28;20230;-74
2021/10/02 11:18:43;;;;;;;3.03;1.77;;;19.60;99.90;;;;;;5111267;28;20283;-74
2021/10/02 11:21:11;;;;;;;2.43;1.77;;;19.70;99.90;;;;;;5111314;28;20277;-74
2021/10/02 11:24:09;;;;;;;1.77;1.67;;;19.80;99.90;;;;;;5111215;28;20206;-74
2021/10/02 11:26:51;;;;;;;3.00;1.50;;;19.90;99.90;;;;;;5110932;28;20208;-74
2021/10/02 11:29:28;;;;;;;1.70;1.60;;;20.00;99.90;;;;;;5111159;28;20190;-74
2021/10/02 11:32:26;;;;;;;1.83;1.73;;;20.10;99.90;;;;;;5111083;28;20194;-74
2021/10/02 11:35:13;;;;;;;1.73;1.63;;;20.10;99.90;;;;;;5110718;28;20236;-74
2021/10/02 11:37:50;;;;;;;1.60;1.50;;;20.30;99.90;;;;;;5110624;28;20222;-74
2021/10/02 11:40:49;;;;;;;4.23;1.90;;;20.60;99.90;;;;;;5110708;28;20225;-74
2021/10/02 11:43:32;;;;;;;1.85;1.75;;;20.70;99.90;;;;;;5110895;28;20214;-74
2021/10/02 11:46:05;;;;;;;2.05;1.80;;;20.70;99.90;;;;;;5110629;28;20662;-74
2021/10/02 11:48:35;;;;;;;2.35;1.60;;;20.70;99.90;;;;;;5110681;28;20236;-74
2021/10/02 11:51:23;;;;;;;1.98;1.80;;;20.70;99.90;;;;;;5110825;28;20210;-74
2021/10/02 11:53:52;;;;;;;1.70;1.60;;;20.70;99.90;;;;;;5110350;28;20725;-74
2021/10/02 11:56:21;;;;;;;2.00;1.80;;;20.70;99.90;;;;;;5110065;28;20232;-74
2021/10/02 11:58:51;;;;;;;2.60;2.00;;;20.70;99.90;;;;;;5110024;28;20252;-74
2021/10/02 12:01:21;;;;;;;1.80;1.67;;;20.70;99.90;;;;;;5110144;28;20191;-74
2021/10/02 12:03:48;;;;;;;1.80;1.70;;;20.80;99.90;;;;;;5109562;28;20259;-74
2021/10/02 12:06:19;;;;;;;1.75;1.65;;;21.00;99.90;;;;;;5108900;28;20210;-73
2021/10/02 12:08:46;;;;;;;2.28;1.90;;;21.10;99.90;;;;;;5101531;28;20192;-73
2021/10/02 12:11:13;;;;;;;4.65;1.80;;;21.10;99.90;;;;;;5106962;27;20202;-73
2021/10/02 12:13:43;;;;;;;1.80;1.70;;;21.20;99.90;;;;;;5109459;27;20265;-73
2021/10/02 12:16:13;;;;;;;1.73;1.63;;;21.30;99.90;;;;;;5109749;27;20228;-74
2021/10/02 12:18:58;;;;;;;1.77;1.30;;;21.40;99.90;;;;;;5108499;28;20314;-74
2021/10/02 12:21:38;;;;;;;1.75;1.50;;;21.50;99.90;;;;;;5108813;27;20206;-74
2021/10/02 12:24:18;;;;;;;2.90;1.48;;;21.60;99.90;;;;;;5109353;28;20210;-74
2021/10/02 12:26:48;;;;;;;2.25;1.08;;;21.60;99.90;;;;;;5109303;28;20197;-74
2021/10/02 12:29:17;;;;;;;3.25;1.42;;;21.60;99.90;;;;;;5109350;28;20637;-74
2021/10/02 12:31:52;;;;;;;1.50;1.40;;;21.60;99.90;;;;;;5109074;28;20298;-74
2021/10/02 12:34:21;;;;;;;2.38;1.40;;;21.60;99.90;;;;;;5109572;28;20193;-74
2021/10/02 12:36:50;;;;;;;1.85;1.40;;;21.70;99.90;;;;;;5109506;28;20250;-74
2021/10/02 12:39:19;;;;;;;1.70;1.40;;;21.70;99.90;;;;;;5109514;28;20226;-74
2021/10/02 12:41:47;;;;;;;3.22;1.65;;;21.60;99.90;;;;;;5109270;28;20290;-74
2021/10/02 12:44:23;;;;;;;1.80;1.40;;;21.50;99.90;;;;;;5109308;28;20202;-74
2021/10/02 12:46:52;;;;;;;1.40;1.30;;;21.50;99.90;;;;;;5109360;28;20273;-74
2021/10/02 12:49:21;;;;;;;2.03;1.75;;;21.70;99.90;;;;;;5109404;28;20237;-75
2021/10/02 12:51:48;;;;;;;2.20;1.88;;;21.80;99.90;;;;;;5108870;28;20672;-74
2021/10/02 12:54:17;;;;;;;10.63;2.00;;;21.70;99.90;;;;;;5109154;28;20206;-75
2021/10/02 12:56:58;;;;;;;3.70;1.83;;;21.50;99.90;;;;;;5108726;28;20260;-74
2021/10/02 12:59:24;;;;;;;3.33;2.92;;;21.40;99.90;;;;;;5108525;28;20275;-74
2021/10/02 13:01:52;;;;;;;2.95;2.33;;;21.20;99.90;;;;;;5108702;28;20255;-74
2021/10/02 13:04:20;;;;;;;1.95;1.85;;;21.00;99.90;;;;;;5108868;28;20259;-74
2021/10/02 13:06:51;;;;;;;4.77;2.40;;;21.00;99.90;;;;;;5108368;27;20471;-74
2021/10/02 13:09:18;;;;;;;2.92;2.72;;;21.00;99.90;;;;;;5112078;27;20259;-75
2021/10/02 13:11:45;;;;;;;2.67;1.83;;;20.90;99.90;;;;;;5108531;28;20202;-74
2021/10/02 13:14:11;;;;;;;4.13;1.40;;;20.80;99.90;;;;;;5108651;28;20267;-74
2021/10/02 13:16:40;;;;;;;3.30;2.10;;;20.80;99.90;;;;;;5114456;27;20662;-75
2021/10/02 13:19:08;;;;;;;1.83;1.70;;;20.80;99.90;;;;;;5129221;27;20225;-75
2021/10/02 13:21:35;;;;;;;1.60;1.50;;;20.80;99.90;;;;;;5127493;27;20201;-75
2021/10/02 13:24:08;;;;;;;1.83;1.60;;;20.90;99.90;;;;;;5128059;27;20292;-74
2021/10/02 13:26:45;;;;;;;1.67;1.57;;;21.00;99.90;;;;;;5122018;27;20205;-75
2021/10/02 13:29:24;;;;;;;2.22;1.52;;;21.10;99.90;;;;;;5107928;27;20206;-75
2021/10/02 13:31:51;;;;;;;3.20;1.60;;;21.10;99.90;;;;;;5108093;28;20232;-75
2021/10/02 13:34:19;;;;;;;1.80;1.70;;;21.00;99.90;;;;;;5108534;28;20202;-74
2021/10/02 13:36:45;;;;;;;2.00;1.47;;;20.90;99.90;;;;;;5108123;27;20255;-74
2021/10/02 13:39:14;;;;;;;1.70;1.53;;;20.90;99.90;;;;;;5092508;28;20274;-74
2021/10/02 13:41:44;;;;;;;3.03;1.97;;;20.90;99.90;;;;;;5088219;28;20223;-76
2021/10/02 13:44:11;;;;;;;2.60;1.60;;;21.00;99.90;;;;;;5098920;28;20278;-75
2021/10/02 13:46:39;;;;;;;1.93;1.67;;;21.10;99.90;;;;;;5099464;27;20602;-75
2021/10/02 13:49:08;;;;;;;2.60;1.50;;;21.20;99.90;;;;;;5104766;28;20202;-74